Nuno Pinto — CURJ9 — position and weather

sailwx.info

Track history (hours):
 
Tides and Currents Weather Stations Pressure Air Temp Water Temp Dewpoint Dewpoint Depression Visibility Wind Speed Wind Dir Waves Ship Positions

Nuno Pinto

Last reported at 2017-Nov-25 09:26 UTC. Time now 2017-Nov-25 09:57 UTC.
Position N 36°49' W 008°05'.

Length 23 m.

Type: Fishing. MMSI: 263401250.

Date/timePositionNaut miles runAvg speedWind from/ knotsBaromVisibWave heightAir tempDewpointWater temp
2017-Nov-25 09:26N 36°49' W 008°05'3 0.4
2017-Nov-25 01:06N 36°48' W 008°09'1 8.2
2017-Nov-25 01:00N 36°49' W 008°09'1 2.8
2017-Nov-25 00:29N 36°50' W 008°09'1 3.0
2017-Nov-25 00:00N 36°51' W 008°07'2 3.1
2017-Nov-24 23:23N 36°52' W 008°05'4 0.7
2017-Nov-24 17:52N 36°50' W 008°09'1 2.7
2017-Nov-24 17:30N 36°49' W 008°08'1 2.4
2017-Nov-24 17:00N 36°50' W 008°06'1 2.9
2017-Nov-24 16:30N 36°51' W 008°05'4 2.9
2017-Nov-24 15:07N 36°51' W 007°60'7 1.7
2017-Nov-24 10:54N 36°49' W 008°08'15 3.3
2017-Nov-24 06:25N 36°50' W 008°26'3 8.3
2017-Nov-24 06:00N 36°54' W 008°27'4 8.5
2017-Nov-24 05:30N 36°58' W 008°29'4 8.1
2017-Nov-24 05:00N 37°02' W 008°30'4 8.1
2017-Nov-24 04:30N 37°06' W 008°31'2 4.8
2017-Nov-24 04:00N 37°08' W 008°32'0 0.0
2017-Nov-24 03:30N 37°08' W 008°32'0 0.0
2017-Nov-24 03:00N 37°08' W 008°32'0 0.0
2017-Nov-24 02:30N 37°08' W 008°32'0 0.0
2017-Nov-24 02:00N 37°08' W 008°32'0 0.0
2017-Nov-24 01:30N 37°08' W 008°32'0 0.0
2017-Nov-24 01:00N 37°08' W 008°32'0 0.0
2017-Nov-24 00:30N 37°08' W 008°32'0 0.0
2017-Nov-24 00:00N 37°08' W 008°32'0 0.0
2017-Nov-23 23:30N 37°08' W 008°32'0 0.0
2017-Nov-23 23:00N 37°08' W 008°32'0 0.0
2017-Nov-23 22:30N 37°08' W 008°32'0 0.0
2017-Nov-23 22:00N 37°08' W 008°32'0 0.0
2017-Nov-23 21:30N 37°08' W 008°32'0 0.0
2017-Nov-23 21:00N 37°08' W 008°32'0 0.0
2017-Nov-23 20:30N 37°08' W 008°32'0 0.0
2017-Nov-23 20:00N 37°08' W 008°32'0 0.0
2017-Nov-23 19:30N 37°08' W 008°32'0 0.0
2017-Nov-23 19:00N 37°08' W 008°32'0 0.0
2017-Nov-23 18:30N 37°08' W 008°32'0 0.0
2017-Nov-23 18:00N 37°08' W 008°32'0 0.0
2017-Nov-23 17:30N 37°08' W 008°32'2 3.4
2017-Nov-23 17:00N 37°06' W 008°32'4 8.3
2017-Nov-23 16:30N 37°02' W 008°32'4 8.3
2017-Nov-23 16:00N 36°58' W 008°32'4 7.8
2017-Nov-23 15:30N 36°54' W 008°32'3 6.3
2017-Nov-23 15:00N 36°51' W 008°33'29 1.8
2017-Nov-22 23:06N 36°58' W 009°08'1 2.9
2017-Nov-22 22:56N 36°58' W 009°08'  
2017-Nov-20 00:30N 37°08' W 008°32'0 0.0
2017-Nov-20 00:00N 37°08' W 008°32'0 0.0
2017-Nov-19 23:30N 37°08' W 008°32'0 0.0
2017-Nov-19 23:00N 37°08' W 008°32'0 0.0
2017-Nov-19 22:30N 37°08' W 008°32'0 0.0
2017-Nov-19 22:00N 37°08' W 008°32'0 0.0
2017-Nov-19 21:30N 37°08' W 008°32'0 0.0
2017-Nov-19 21:00N 37°08' W 008°32'0 0.0
2017-Nov-19 20:30N 37°08' W 008°32'1 1.1
2017-Nov-19 20:00N 37°07' W 008°32'4 8.1
2017-Nov-19 19:30N 37°04' W 008°33'4 8.6
2017-Nov-19 19:00N 36°60' W 008°35'4 8.3
2017-Nov-19 18:30N 36°56' W 008°36'7 8.3
2017-Nov-19 17:36N 36°48' W 008°39'0 1.7
2017-Nov-19 17:30N 36°48' W 008°39'1 1.3
2017-Nov-19 16:57N 36°48' W 008°38'24 2.3
2017-Nov-19 06:34N 36°49' W 009°08'0 3.1
2017-Nov-19 06:27N 36°49' W 009°08'2 3.0
2017-Nov-19 05:57N 36°51' W 009°07'2 2.9
2017-Nov-19 05:20N 36°52' W 009°07'1 3.0
2017-Nov-19 05:00N 36°53' W 009°07'2 3.0
2017-Nov-19 04:29N 36°55' W 009°07'1 3.0
2017-Nov-19 04:00N 36°56' W 009°08'29 6.7
2017-Nov-18 23:40N 37°25' W 009°16'2 9.4
2017-Nov-18 23:27N 37°27' W 009°17'1 2.0
2017-Nov-18 23:01N 37°28' W 009°17'1 1.6
2017-Nov-18 22:30N 37°28' W 009°17'1 2.9
2017-Nov-18 21:59N 37°30' W 009°17'2 2.9
2017-Nov-18 21:23N 37°32' W 009°18'1 2.8
2017-Nov-18 20:58N 37°33' W 009°18'1 2.8
2017-Nov-18 20:30N 37°34' W 009°19'1 2.9
2017-Nov-18 20:00N 37°35' W 009°20'1 2.8
2017-Nov-18 19:29N 37°36' W 009°21'3 3.9
2017-Nov-18 18:39N 37°38' W 009°24'1 3.2
2017-Nov-18 18:29N 37°38' W 009°24'1 1.2
2017-Nov-18 18:00N 37°38' W 009°24'1 2.5
2017-Nov-18 17:30N 37°38' W 009°23'1 2.8
2017-Nov-18 17:00N 37°37' W 009°22'1 2.8
2017-Nov-18 16:31N 37°36' W 009°20'1 2.7
2017-Nov-18 16:00N 37°35' W 009°19'1 2.8
2017-Nov-18 15:30N 37°33' W 009°19'1 2.8
2017-Nov-18 15:01N 37°32' W 009°18'1 2.8
2017-Nov-18 14:30N 37°31' W 009°18'1 2.5
2017-Nov-18 14:01N 37°29' W 009°17'2 4.1
2017-Nov-18 13:30N 37°27' W 009°17'0 0.5
2017-Nov-18 13:01N 37°28' W 009°17'1 1.9
2017-Nov-18 12:27N 37°29' W 009°17'1 2.8
2017-Nov-18 11:57N 37°30' W 009°17'1 2.8
2017-Nov-18 11:30N 37°31' W 009°18'4 2.9
2017-Nov-18 10:12N 37°35' W 009°19'5 3.2
2017-Nov-18 08:31N 37°38' W 009°25'0 8.4
2017-Nov-18 08:31N 37°38' W 009°25'0 0.2
2017-Nov-18 08:00N 37°38' W 009°24'1 2.1
2017-Nov-18 07:21N 37°37' W 009°23'1 2.8
2017-Nov-18 07:00N 37°37' W 009°22'1 2.8
2017-Nov-18 06:31N 37°36' W 009°21'1 2.8
2017-Nov-18 06:00N 37°35' W 009°19'2 2.8
2017-Nov-18 05:27N 37°33' W 009°19'1 2.8
2017-Nov-18 05:00N 37°32' W 009°18'1 2.8
2017-Nov-18 04:28N 37°31' W 009°17'1 2.5
2017-Nov-18 04:01N 37°30' W 009°17'2 4.4
2017-Nov-18 03:30N 37°27' W 009°17'5 8.5
2017-Nov-18 02:58N 37°23' W 009°16'4 8.8
2017-Nov-18 02:30N 37°19' W 009°15'4 8.3
2017-Nov-18 01:59N 37°15' W 009°13'8 8.6
2017-Nov-18 01:00N 37°07' W 009°11'4 8.7
2017-Nov-18 00:31N 37°03' W 009°09'4 2.3
2017-Nov-17 22:57N 36°59' W 009°08'1 3.0
2017-Nov-17 22:30N 36°58' W 009°08'1 3.0
2017-Nov-17 22:00N 36°56' W 009°08'1 3.0
2017-Nov-17 21:30N 36°55' W 009°08'6 2.9
2017-Nov-17 19:27N 36°49' W 009°09'10 3.8
2017-Nov-17 16:44N 36°49' W 008°56'6 3.0
2017-Nov-17 14:51N 36°49' W 008°49'5 0.8
2017-Nov-17 08:32N 36°48' W 008°43'0 3.0
2017-Nov-17 08:30N 36°48' W 008°43'2 3.0
2017-Nov-17 07:56N 36°48' W 008°41'8 3.1
2017-Nov-17 05:22N 36°54' W 008°33'7 8.4
2017-Nov-17 04:30N 37°01' W 008°32'4 8.3
2017-Nov-17 04:00N 37°05' W 008°32'3 4.3
2017-Nov-17 03:22N 37°08' W 008°32'0 0.0
2017-Nov-17 02:59N 37°08' W 008°32'0 0.0
2017-Nov-17 02:17N 37°08' W 008°32'0 0.0
2017-Nov-17 01:51N 37°08' W 008°32'0 0.0
2017-Nov-17 01:30N 37°08' W 008°32'0 0.0
2017-Nov-17 01:00N 37°08' W 008°32'0 0.0
2017-Nov-17 00:30N 37°08' W 008°32'0 0.0
2017-Nov-17 00:00N 37°08' W 008°32'0 0.0
2017-Nov-16 23:30N 37°08' W 008°32'0 0.0
2017-Nov-16 23:00N 37°08' W 008°32'0 0.0
2017-Nov-16 22:30N 37°08' W 008°32'0 0.0
2017-Nov-16 22:00N 37°08' W 008°32'0 0.0
2017-Nov-16 21:30N 37°08' W 008°32'0 0.0
2017-Nov-16 21:00N 37°08' W 008°32'0 0.0
2017-Nov-16 20:30N 37°08' W 008°32'0 0.0
2017-Nov-16 20:00N 37°08' W 008°32'1 2.9
2017-Nov-16 19:30N 37°07' W 008°32'4 8.9
2017-Nov-16 19:00N 37°02' W 008°33'4 8.8
2017-Nov-16 18:30N 36°58' W 008°35'4 8.9
2017-Nov-16 18:00N 36°54' W 008°36'11 1.5
2017-Nov-16 10:27N 36°50' W 008°49'1 2.9
2017-Nov-16 10:00N 36°49' W 008°48'2 3.0
2017-Nov-16 09:21N 36°49' W 008°45'1 2.9
2017-Nov-16 09:00N 36°49' W 008°44'2 3.0
2017-Nov-16 08:25N 36°49' W 008°42'1 2.7
2017-Nov-16 07:58N 36°48' W 008°40'4 3.0
2017-Nov-16 06:43N 36°48' W 008°36'1 1.6
2017-Nov-16 06:13N 36°48' W 008°35'3 1.8
2017-Nov-16 04:42N 36°48' W 008°31'2 7.9
2017-Nov-16 04:27N 36°48' W 008°29'4 7.9
2017-Nov-16 03:59N 36°47' W 008°24'2 3.3
2017-Nov-16 03:26N 36°47' W 008°22'1 1.0
2017-Nov-16 02:53N 36°47' W 008°21'1 3.0
2017-Nov-16 02:30N 36°47' W 008°20'4 3.1
2017-Nov-16 01:19N 36°47' W 008°16'1 3.0
2017-Nov-16 00:56N 36°47' W 008°14'2 4.1
2017-Nov-16 00:27N 36°47' W 008°12'4 7.3
2017-Nov-15 23:57N 36°51' W 008°14'7 2.7
2017-Nov-15 21:17N 36°52' W 008°22'5 3.0
2017-Nov-15 19:29N 36°53' W 008°29'  
Track history (hours):
 
Tides and Currents Weather Stations Pressure Air Temp Water Temp Dewpoint Dewpoint Depression Visibility Wind Speed Wind Dir Waves Ship Positions

Nuno Pinto

Last reported at 2017-Nov-25 09:26 UTC. Time now 2017-Nov-25 09:57 UTC.
Position N 36°49' W 008°05'.

Length 23 m.

Type: Fishing. MMSI: 263401250.

Date/timePositionNaut miles runAvg speedWind from/ knotsBaromVisibWave heightAir tempDewpointWater temp
2017-Nov-25 09:26N 36°49' W 008°05'3 0.4
2017-Nov-25 01:06N 36°48' W 008°09'1 8.2
2017-Nov-25 01:00N 36°49' W 008°09'1 2.8
2017-Nov-25 00:29N 36°50' W 008°09'1 3.0
2017-Nov-25 00:00N 36°51' W 008°07'2 3.1
2017-Nov-24 23:23N 36°52' W 008°05'4 0.7
2017-Nov-24 17:52N 36°50' W 008°09'1 2.7
2017-Nov-24 17:30N 36°49' W 008°08'1 2.4
2017-Nov-24 17:00N 36°50' W 008°06'1 2.9
2017-Nov-24 16:30N 36°51' W 008°05'4 2.9
2017-Nov-24 15:07N 36°51' W 007°60'7 1.7
2017-Nov-24 10:54N 36°49' W 008°08'15 3.3
2017-Nov-24 06:25N 36°50' W 008°26'3 8.3
2017-Nov-24 06:00N 36°54' W 008°27'4 8.5
2017-Nov-24 05:30N 36°58' W 008°29'4 8.1
2017-Nov-24 05:00N 37°02' W 008°30'4 8.1
2017-Nov-24 04:30N 37°06' W 008°31'2 4.8
2017-Nov-24 04:00N 37°08' W 008°32'0 0.0
2017-Nov-24 03:30N 37°08' W 008°32'0 0.0
2017-Nov-24 03:00N 37°08' W 008°32'0 0.0
2017-Nov-24 02:30N 37°08' W 008°32'0 0.0
2017-Nov-24 02:00N 37°08' W 008°32'0 0.0
2017-Nov-24 01:30N 37°08' W 008°32'0 0.0
2017-Nov-24 01:00N 37°08' W 008°32'0 0.0
2017-Nov-24 00:30N 37°08' W 008°32'0 0.0
2017-Nov-24 00:00N 37°08' W 008°32'0 0.0
2017-Nov-23 23:30N 37°08' W 008°32'0 0.0
2017-Nov-23 23:00N 37°08' W 008°32'0 0.0
2017-Nov-23 22:30N 37°08' W 008°32'0 0.0
2017-Nov-23 22:00N 37°08' W 008°32'0 0.0
2017-Nov-23 21:30N 37°08' W 008°32'0 0.0
2017-Nov-23 21:00N 37°08' W 008°32'0 0.0
2017-Nov-23 20:30N 37°08' W 008°32'0 0.0
2017-Nov-23 20:00N 37°08' W 008°32'0 0.0
2017-Nov-23 19:30N 37°08' W 008°32'0 0.0
2017-Nov-23 19:00N 37°08' W 008°32'0 0.0
2017-Nov-23 18:30N 37°08' W 008°32'0 0.0
2017-Nov-23 18:00N 37°08' W 008°32'0 0.0
2017-Nov-23 17:30N 37°08' W 008°32'2 3.4
2017-Nov-23 17:00N 37°06' W 008°32'4 8.3
2017-Nov-23 16:30N 37°02' W 008°32'4 8.3
2017-Nov-23 16:00N 36°58' W 008°32'4 7.8
2017-Nov-23 15:30N 36°54' W 008°32'3 6.3
2017-Nov-23 15:00N 36°51' W 008°33'29 1.8
2017-Nov-22 23:06N 36°58' W 009°08'1 2.9
2017-Nov-22 22:56N 36°58' W 009°08'  
2017-Nov-20 00:30N 37°08' W 008°32'0 0.0
2017-Nov-20 00:00N 37°08' W 008°32'0 0.0
2017-Nov-19 23:30N 37°08' W 008°32'0 0.0
2017-Nov-19 23:00N 37°08' W 008°32'0 0.0
2017-Nov-19 22:30N 37°08' W 008°32'0 0.0
2017-Nov-19 22:00N 37°08' W 008°32'0 0.0
2017-Nov-19 21:30N 37°08' W 008°32'0 0.0
2017-Nov-19 21:00N 37°08' W 008°32'0 0.0
2017-Nov-19 20:30N 37°08' W 008°32'1 1.1
2017-Nov-19 20:00N 37°07' W 008°32'4 8.1
2017-Nov-19 19:30N 37°04' W 008°33'4 8.6
2017-Nov-19 19:00N 36°60' W 008°35'4 8.3
2017-Nov-19 18:30N 36°56' W 008°36'7 8.3
2017-Nov-19 17:36N 36°48' W 008°39'0 1.7
2017-Nov-19 17:30N 36°48' W 008°39'1 1.3
2017-Nov-19 16:57N 36°48' W 008°38'24 2.3
2017-Nov-19 06:34N 36°49' W 009°08'0 3.1
2017-Nov-19 06:27N 36°49' W 009°08'2 3.0
2017-Nov-19 05:57N 36°51' W 009°07'2 2.9
2017-Nov-19 05:20N 36°52' W 009°07'1 3.0
2017-Nov-19 05:00N 36°53' W 009°07'2 3.0
2017-Nov-19 04:29N 36°55' W 009°07'1 3.0
2017-Nov-19 04:00N 36°56' W 009°08'29 6.7
2017-Nov-18 23:40N 37°25' W 009°16'2 9.4
2017-Nov-18 23:27N 37°27' W 009°17'1 2.0
2017-Nov-18 23:01N 37°28' W 009°17'1 1.6
2017-Nov-18 22:30N 37°28' W 009°17'1 2.9
2017-Nov-18 21:59N 37°30' W 009°17'2 2.9
2017-Nov-18 21:23N 37°32' W 009°18'1 2.8
2017-Nov-18 20:58N 37°33' W 009°18'1 2.8
2017-Nov-18 20:30N 37°34' W 009°19'1 2.9
2017-Nov-18 20:00N 37°35' W 009°20'1 2.8
2017-Nov-18 19:29N 37°36' W 009°21'3 3.9
2017-Nov-18 18:39N 37°38' W 009°24'1 3.2
2017-Nov-18 18:29N 37°38' W 009°24'1 1.2
2017-Nov-18 18:00N 37°38' W 009°24'1 2.5
2017-Nov-18 17:30N 37°38' W 009°23'1 2.8
2017-Nov-18 17:00N 37°37' W 009°22'1 2.8
2017-Nov-18 16:31N 37°36' W 009°20'1 2.7
2017-Nov-18 16:00N 37°35' W 009°19'1 2.8
2017-Nov-18 15:30N 37°33' W 009°19'1 2.8
2017-Nov-18 15:01N 37°32' W 009°18'1 2.8
2017-Nov-18 14:30N 37°31' W 009°18'1 2.5
2017-Nov-18 14:01N 37°29' W 009°17'2 4.1
2017-Nov-18 13:30N 37°27' W 009°17'0 0.5
2017-Nov-18 13:01N 37°28' W 009°17'1 1.9
2017-Nov-18 12:27N 37°29' W 009°17'1 2.8
2017-Nov-18 11:57N 37°30' W 009°17'1 2.8
2017-Nov-18 11:30N 37°31' W 009°18'4 2.9
2017-Nov-18 10:12N 37°35' W 009°19'5 3.2
2017-Nov-18 08:31N 37°38' W 009°25'0 8.4
2017-Nov-18 08:31N 37°38' W 009°25'0 0.2
2017-Nov-18 08:00N 37°38' W 009°24'1 2.1
2017-Nov-18 07:21N 37°37' W 009°23'1 2.8
2017-Nov-18 07:00N 37°37' W 009°22'1 2.8
2017-Nov-18 06:31N 37°36' W 009°21'1 2.8
2017-Nov-18 06:00N 37°35' W 009°19'2 2.8
2017-Nov-18 05:27N 37°33' W 009°19'1 2.8
2017-Nov-18 05:00N 37°32' W 009°18'1 2.8
2017-Nov-18 04:28N 37°31' W 009°17'1 2.5
2017-Nov-18 04:01N 37°30' W 009°17'2 4.4
2017-Nov-18 03:30N 37°27' W 009°17'5 8.5
2017-Nov-18 02:58N 37°23' W 009°16'4 8.8
2017-Nov-18 02:30N 37°19' W 009°15'4 8.3
2017-Nov-18 01:59N 37°15' W 009°13'8 8.6
2017-Nov-18 01:00N 37°07' W 009°11'4 8.7
2017-Nov-18 00:31N 37°03' W 009°09'4 2.3
2017-Nov-17 22:57N 36°59' W 009°08'1 3.0
2017-Nov-17 22:30N 36°58' W 009°08'1 3.0
2017-Nov-17 22:00N 36°56' W 009°08'1 3.0
2017-Nov-17 21:30N 36°55' W 009°08'6 2.9
2017-Nov-17 19:27N 36°49' W 009°09'10 3.8
2017-Nov-17 16:44N 36°49' W 008°56'6 3.0
2017-Nov-17 14:51N 36°49' W 008°49'5 0.8
2017-Nov-17 08:32N 36°48' W 008°43'0 3.0
2017-Nov-17 08:30N 36°48' W 008°43'2 3.0
2017-Nov-17 07:56N 36°48' W 008°41'8 3.1
2017-Nov-17 05:22N 36°54' W 008°33'7 8.4
2017-Nov-17 04:30N 37°01' W 008°32'4 8.3
2017-Nov-17 04:00N 37°05' W 008°32'3 4.3
2017-Nov-17 03:22N 37°08' W 008°32'0 0.0
2017-Nov-17 02:59N 37°08' W 008°32'0 0.0
2017-Nov-17 02:17N 37°08' W 008°32'0 0.0
2017-Nov-17 01:51N 37°08' W 008°32'0 0.0
2017-Nov-17 01:30N 37°08' W 008°32'0 0.0
2017-Nov-17 01:00N 37°08' W 008°32'0 0.0
2017-Nov-17 00:30N 37°08' W 008°32'0 0.0
2017-Nov-17 00:00N 37°08' W 008°32'0 0.0
2017-Nov-16 23:30N 37°08' W 008°32'0 0.0
2017-Nov-16 23:00N 37°08' W 008°32'0 0.0
2017-Nov-16 22:30N 37°08' W 008°32'0 0.0
2017-Nov-16 22:00N 37°08' W 008°32'0 0.0
2017-Nov-16 21:30N 37°08' W 008°32'0 0.0
2017-Nov-16 21:00N 37°08' W 008°32'0 0.0
2017-Nov-16 20:30N 37°08' W 008°32'0 0.0
2017-Nov-16 20:00N 37°08' W 008°32'1 2.9
2017-Nov-16 19:30N 37°07' W 008°32'4 8.9
2017-Nov-16 19:00N 37°02' W 008°33'4 8.8
2017-Nov-16 18:30N 36°58' W 008°35'4 8.9
2017-Nov-16 18:00N 36°54' W 008°36'11 1.5
2017-Nov-16 10:27N 36°50' W 008°49'1 2.9
2017-Nov-16 10:00N 36°49' W 008°48'2 3.0
2017-Nov-16 09:21N 36°49' W 008°45'1 2.9
2017-Nov-16 09:00N 36°49' W 008°44'2 3.0
2017-Nov-16 08:25N 36°49' W 008°42'1 2.7
2017-Nov-16 07:58N 36°48' W 008°40'4 3.0
2017-Nov-16 06:43N 36°48' W 008°36'1 1.6
2017-Nov-16 06:13N 36°48' W 008°35'3 1.8
2017-Nov-16 04:42N 36°48' W 008°31'2 7.9
2017-Nov-16 04:27N 36°48' W 008°29'4 7.9
2017-Nov-16 03:59N 36°47' W 008°24'2 3.3
2017-Nov-16 03:26N 36°47' W 008°22'1 1.0
2017-Nov-16 02:53N 36°47' W 008°21'1 3.0
2017-Nov-16 02:30N 36°47' W 008°20'4 3.1
2017-Nov-16 01:19N 36°47' W 008°16'1 3.0
2017-Nov-16 00:56N 36°47' W 008°14'2 4.1
2017-Nov-16 00:27N 36°47' W 008°12'4 7.3
2017-Nov-15 23:57N 36°51' W 008°14'7 2.7
2017-Nov-15 21:17N 36°52' W 008°22'5 3.0
2017-Nov-15 19:29N 36°53' W 008°29'  

Dump ship's entire track history